createdAt,value
2017-09-15T00:00:22.536Z,0
2017-09-15T00:01:24.929Z,0
2017-09-15T00:02:27.322Z,0
2017-09-15T00:03:30.055Z,0
2017-09-15T00:04:32.784Z,0
2017-09-15T00:05:35.510Z,0
2017-09-15T00:06:37.915Z,0
2017-09-15T00:07:40.296Z,0
2017-09-15T00:08:42.685Z,0
2017-09-15T00:09:45.082Z,0
2017-09-15T00:10:47.462Z,0
2017-09-15T00:11:49.859Z,0
2017-09-15T00:12:52.251Z,0
2017-09-15T00:13:54.629Z,0
2017-09-15T00:14:57.028Z,0
2017-09-15T00:15:59.418Z,0
2017-09-15T00:17:02.148Z,0
2017-09-15T00:18:04.548Z,0
2017-09-15T00:19:06.937Z,0
2017-09-15T00:20:09.328Z,0
2017-09-15T00:21:11.727Z,0
2017-09-15T00:22:14.119Z,0
2017-09-15T00:23:16.496Z,0
2017-09-15T00:24:18.887Z,0
2017-09-15T00:25:21.285Z,0
2017-09-15T00:26:23.674Z,0
2017-09-15T00:27:26.061Z,0
2017-09-15T00:28:28.459Z,0
2017-09-15T00:29:30.846Z,0
2017-09-15T00:30:33.930Z,0
2017-09-15T00:31:36.323Z,0
2017-09-15T00:32:38.715Z,0
2017-09-15T00:33:41.107Z,0
2017-09-15T00:34:43.499Z,0
2017-09-15T00:35:45.892Z,0
2017-09-15T00:36:48.623Z,0
2017-09-15T00:37:51.013Z,0
2017-09-15T00:38:53.403Z,0
2017-09-15T00:39:55.855Z,0
2017-09-15T00:40:58.271Z,0
2017-09-15T00:42:01.009Z,0
2017-09-15T00:43:03.406Z,0
2017-09-15T00:44:05.801Z,0
2017-09-15T00:45:08.192Z,0
2017-09-15T00:46:10.592Z,0
2017-09-15T00:47:13.338Z,0
2017-09-15T00:48:15.725Z,0
2017-09-15T00:49:18.124Z,0
2017-09-15T00:50:20.515Z,0
2017-09-15T00:51:22.903Z,0
2017-09-15T00:52:25.289Z,0
2017-09-15T00:53:27.684Z,0
2017-09-15T00:54:30.075Z,0
2017-09-15T00:55:32.467Z,0
2017-09-15T00:56:34.865Z,0
2017-09-15T00:57:37.253Z,0
2017-09-15T00:58:39.643Z,0
2017-09-15T00:59:42.038Z,0
2017-09-15T01:00:44.428Z,0
2017-09-15T01:01:46.826Z,0
2017-09-15T01:02:49.214Z,0
2017-09-15T01:03:51.595Z,0
2017-09-15T01:04:53.994Z,0
2017-09-15T01:05:56.390Z,0
2017-09-15T01:06:58.802Z,0
2017-09-15T01:08:01.174Z,0
2017-09-15T01:09:03.571Z,0
2017-09-15T01:10:05.966Z,0
2017-09-15T01:11:08.355Z,0
2017-09-15T01:12:10.750Z,0
2017-09-15T01:13:13.131Z,0
2017-09-15T01:14:15.531Z,0
2017-09-15T01:15:17.927Z,0
2017-09-15T01:16:20.316Z,0
2017-09-15T01:17:22.703Z,0
2017-09-15T01:18:25.095Z,0
2017-09-15T01:19:27.483Z,0
2017-09-15T01:20:29.884Z,0
2017-09-15T01:21:32.277Z,0
2017-09-15T01:22:34.669Z,0
2017-09-15T01:23:37.065Z,0
2017-09-15T01:24:39.801Z,0
2017-09-15T01:25:42.866Z,0
2017-09-15T01:26:45.264Z,0
2017-09-15T01:27:47.654Z,0
2017-09-15T01:28:50.044Z,0
2017-09-15T01:29:52.441Z,0
2017-09-15T01:30:55.170Z,0
2017-09-15T01:31:57.563Z,0
2017-09-15T01:32:59.953Z,0
2017-09-15T01:34:02.350Z,0
2017-09-15T01:35:04.741Z,0
2017-09-15T01:36:07.137Z,0
2017-09-15T01:37:09.523Z,0
2017-09-15T01:38:11.914Z,0
2017-09-15T01:39:14.320Z,0
2017-09-15T01:40:16.701Z,0
2017-09-15T01:41:19.094Z,0
2017-09-15T01:42:21.481Z,0
2017-09-15T01:43:23.873Z,0
2017-09-15T01:44:26.265Z,0
2017-09-15T01:45:28.657Z,0
2017-09-15T01:46:31.047Z,0
2017-09-15T01:47:33.436Z,0
2017-09-15T01:48:35.836Z,0
2017-09-15T01:49:38.228Z,0
2017-09-15T01:50:40.620Z,0
2017-09-15T01:51:43.022Z,0
2017-09-15T01:52:45.413Z,0
2017-09-15T01:53:47.799Z,0
2017-09-15T01:54:50.195Z,0
2017-09-15T01:55:52.585Z,0
2017-09-15T01:56:54.982Z,0
2017-09-15T01:57:57.371Z,0
2017-09-15T01:58:59.762Z,0
2017-09-15T02:00:02.160Z,0
2017-09-15T02:01:04.906Z,0
2017-09-15T02:02:07.284Z,0
2017-09-15T02:03:09.679Z,0
2017-09-15T02:04:12.075Z,0
2017-09-15T02:05:14.459Z,0
2017-09-15T02:06:16.854Z,0
2017-09-15T02:07:19.248Z,0
2017-09-15T02:08:21.640Z,0
2017-09-15T02:09:24.031Z,0
2017-09-15T02:10:26.422Z,0
2017-09-15T02:11:28.867Z,0
2017-09-15T02:12:31.256Z,0
2017-09-15T02:13:33.656Z,0
2017-09-15T02:14:36.044Z,0
2017-09-15T02:15:38.778Z,0
2017-09-15T02:16:41.166Z,0
2017-09-15T02:17:43.895Z,0
2017-09-15T02:18:46.291Z,0
2017-09-15T02:19:48.688Z,0
2017-09-15T02:20:51.072Z,0
2017-09-15T02:21:53.458Z,0
2017-09-15T02:22:55.859Z,0
2017-09-15T02:23:58.247Z,0
2017-09-15T02:25:00.641Z,0
2017-09-15T02:26:03.033Z,0
2017-09-15T02:27:05.414Z,0
2017-09-15T02:28:08.490Z,0
2017-09-15T02:29:11.218Z,0
2017-09-15T02:30:13.606Z,0
2017-09-15T02:31:16.005Z,0
2017-09-15T02:32:18.392Z,0
2017-09-15T02:33:20.786Z,0
2017-09-15T02:34:23.183Z,0
2017-09-15T02:35:25.913Z,0
2017-09-15T02:36:28.636Z,0
2017-09-15T02:37:31.030Z,0
2017-09-15T02:38:33.418Z,0
2017-09-15T02:39:35.812Z,0
2017-09-15T02:40:38.204Z,0
2017-09-15T02:41:40.597Z,0
2017-09-15T02:42:42.984Z,0
2017-09-15T02:43:45.379Z,0
2017-09-15T02:44:47.767Z,0
2017-09-15T02:45:50.172Z,0
2017-09-15T02:46:52.559Z,0
2017-09-15T02:47:54.952Z,0
2017-09-15T02:48:57.340Z,0
2017-09-15T02:49:59.737Z,0
2017-09-15T02:51:02.122Z,0
2017-09-15T02:52:04.523Z,0
2017-09-15T02:53:06.909Z,0
2017-09-15T02:54:09.301Z,0
2017-09-15T02:55:11.697Z,0
2017-09-15T02:56:14.084Z,0
2017-09-15T02:57:16.475Z,0
2017-09-15T02:58:18.875Z,0
2017-09-15T02:59:21.264Z,0
2017-09-15T03:00:23.661Z,0
2017-09-15T03:01:26.054Z,0
2017-09-15T03:02:28.445Z,0
2017-09-15T03:03:30.839Z,0
2017-09-15T03:04:33.228Z,0
2017-09-15T03:05:35.613Z,0
2017-09-15T03:06:38.001Z,0
2017-09-15T03:07:40.397Z,0
2017-09-15T03:08:43.149Z,0
2017-09-15T03:09:45.532Z,0
2017-09-15T03:10:47.925Z,0
2017-09-15T03:11:50.325Z,0
2017-09-15T03:12:52.722Z,0
2017-09-15T03:13:55.113Z,0
2017-09-15T03:14:57.506Z,0
2017-09-15T03:15:59.892Z,0
2017-09-15T03:17:02.297Z,0
2017-09-15T03:18:04.685Z,0
2017-09-15T03:19:07.062Z,0
2017-09-15T03:20:09.461Z,0
2017-09-15T03:21:11.856Z,0
2017-09-15T03:22:14.247Z,0
2017-09-15T03:23:16.638Z,0
2017-09-15T03:24:19.035Z,0
2017-09-15T03:25:21.427Z,0
2017-09-15T03:26:23.818Z,0
2017-09-15T03:27:26.215Z,0
2017-09-15T03:28:28.600Z,0
2017-09-15T03:29:30.992Z,0
2017-09-15T03:30:33.382Z,0
2017-09-15T03:31:35.776Z,0
2017-09-15T03:32:38.159Z,0
2017-09-15T03:33:40.555Z,0
2017-09-15T03:34:42.938Z,0
2017-09-15T03:35:45.338Z,0
2017-09-15T03:36:47.728Z,0
2017-09-15T03:37:50.114Z,0
2017-09-15T03:38:52.513Z,0
2017-09-15T03:39:54.903Z,0
2017-09-15T03:40:57.295Z,0
2017-09-15T03:41:59.699Z,0
2017-09-15T03:43:02.433Z,0
2017-09-15T03:44:05.172Z,0
2017-09-15T03:45:07.572Z,0
2017-09-15T03:46:09.955Z,0
2017-09-15T03:47:12.347Z,0
2017-09-15T03:48:14.736Z,0
2017-09-15T03:49:17.133Z,0
2017-09-15T03:50:19.513Z,0
2017-09-15T03:51:21.907Z,0
2017-09-15T03:52:24.302Z,0
2017-09-15T03:53:26.694Z,0
2017-09-15T03:54:29.082Z,0
2017-09-15T03:55:31.477Z,0
2017-09-15T03:56:34.230Z,0
2017-09-15T03:57:36.625Z,0
2017-09-15T03:58:39.014Z,0
2017-09-15T03:59:41.735Z,0
2017-09-15T04:00:44.122Z,0
2017-09-15T04:01:46.858Z,0
2017-09-15T04:02:49.247Z,0
2017-09-15T04:03:51.650Z,0
2017-09-15T04:04:54.041Z,0
2017-09-15T04:05:56.425Z,0
2017-09-15T04:06:58.822Z,0
2017-09-15T04:08:01.217Z,0
2017-09-15T04:09:03.623Z,0
2017-09-15T04:10:06.339Z,0
2017-09-15T04:11:08.727Z,0
2017-09-15T04:12:11.116Z,0
2017-09-15T04:13:13.509Z,0
2017-09-15T04:14:16.247Z,0
2017-09-15T04:15:18.632Z,0
2017-09-15T04:16:21.035Z,0
2017-09-15T04:17:23.776Z,0
2017-09-15T04:18:26.163Z,0
2017-09-15T04:19:28.921Z,0
2017-09-15T04:20:31.314Z,0
2017-09-15T04:21:33.705Z,0
2017-09-15T04:22:36.088Z,0
2017-09-15T04:23:38.473Z,0
2017-09-15T04:24:41.202Z,0
2017-09-15T04:25:43.601Z,0
2017-09-15T04:26:46.322Z,0
2017-09-15T04:27:48.713Z,0
2017-09-15T04:28:51.111Z,0
2017-09-15T04:29:53.509Z,0
2017-09-15T04:30:55.901Z,0
2017-09-15T04:31:58.295Z,0
2017-09-15T04:33:00.674Z,0
2017-09-15T04:34:03.069Z,0
2017-09-15T04:35:05.464Z,0
2017-09-15T04:36:07.851Z,0
2017-09-15T04:37:10.246Z,0
2017-09-15T04:38:12.984Z,0
2017-09-15T04:39:15.374Z,0
2017-09-15T04:40:17.778Z,1
2017-09-15T04:41:20.164Z,1
2017-09-15T04:42:22.554Z,1
2017-09-15T04:43:24.945Z,1
2017-09-15T04:44:27.341Z,1
2017-09-15T04:45:29.734Z,1
2017-09-15T04:46:32.126Z,1
2017-09-15T04:47:34.567Z,2
2017-09-15T04:48:37.002Z,2
2017-09-15T04:49:39.458Z,2
2017-09-15T04:50:41.905Z,2
2017-09-15T04:51:44.347Z,3
2017-09-15T04:52:46.803Z,3
2017-09-15T04:53:49.276Z,3
2017-09-15T04:54:52.109Z,3
2017-09-15T04:55:54.905Z,4
2017-09-15T04:56:57.366Z,4
2017-09-15T04:57:59.809Z,4
2017-09-15T04:59:02.282Z,5
2017-09-15T05:00:04.729Z,5
2017-09-15T05:01:07.176Z,5
2017-09-15T05:02:09.976Z,6
2017-09-15T05:03:12.456Z,6
2017-09-15T05:04:14.912Z,6
2017-09-15T05:05:17.358Z,7
2017-09-15T05:06:19.800Z,7
2017-09-15T05:07:22.258Z,7
2017-09-15T05:08:24.694Z,8
2017-09-15T05:09:27.143Z,8
2017-09-15T05:10:29.608Z,9
2017-09-15T05:11:32.058Z,9
2017-09-15T05:12:34.511Z,9
2017-09-15T05:13:36.967Z,10
2017-09-15T05:14:39.413Z,10
2017-09-15T05:15:41.860Z,11
2017-09-15T05:16:44.375Z,11
2017-09-15T05:17:46.834Z,12
2017-09-15T05:18:49.283Z,12
2017-09-15T05:19:51.729Z,13
2017-09-15T05:20:54.189Z,13
2017-09-15T05:21:56.642Z,13
2017-09-15T05:22:59.080Z,14
2017-09-15T05:24:01.530Z,14
2017-09-15T05:25:03.989Z,15
2017-09-15T05:26:06.442Z,12
2017-09-15T05:27:08.893Z,16
2017-09-15T05:28:11.694Z,16
2017-09-15T05:29:14.137Z,16
2017-09-15T05:30:16.589Z,17
2017-09-15T05:31:19.042Z,17
2017-09-15T05:32:21.478Z,18
2017-09-15T05:33:23.924Z,18
2017-09-15T05:34:26.374Z,19
2017-09-15T05:35:28.825Z,18
2017-09-15T05:36:31.276Z,19
2017-09-15T05:37:33.718Z,20
2017-09-15T05:38:36.171Z,21
2017-09-15T05:39:38.629Z,21
2017-09-15T05:40:41.089Z,20
2017-09-15T05:41:43.541Z,21
2017-09-15T05:42:45.989Z,22
2017-09-15T05:43:48.434Z,22
2017-09-15T05:44:50.895Z,22
2017-09-15T05:45:53.342Z,23
2017-09-15T05:46:55.795Z,23
2017-09-15T05:47:58.264Z,24
2017-09-15T05:49:00.720Z,24
2017-09-15T05:50:03.185Z,24
2017-09-15T05:51:05.630Z,25
2017-09-15T05:52:08.095Z,25
2017-09-15T05:53:10.886Z,26
2017-09-15T05:54:13.334Z,26
2017-09-15T05:55:15.784Z,27
2017-09-15T05:56:18.233Z,27
2017-09-15T05:57:20.687Z,30
2017-09-15T05:58:23.146Z,30
2017-09-15T05:59:25.593Z,29
2017-09-15T06:00:28.042Z,30
2017-09-15T06:01:30.515Z,31
2017-09-15T06:02:32.966Z,30
2017-09-15T06:03:35.416Z,33
2017-09-15T06:04:37.870Z,32
2017-09-15T06:05:40.306Z,33
2017-09-15T06:06:42.788Z,32
2017-09-15T06:07:45.236Z,33
2017-09-15T06:08:47.685Z,33
2017-09-15T06:09:50.832Z,34
2017-09-15T06:10:53.285Z,36
2017-09-15T06:11:55.725Z,38
2017-09-15T06:12:58.189Z,38
2017-09-15T06:14:00.633Z,33
2017-09-15T06:15:03.078Z,33
2017-09-15T06:16:05.526Z,36
2017-09-15T06:17:07.972Z,37
2017-09-15T06:18:10.769Z,38
2017-09-15T06:19:13.224Z,42
2017-09-15T06:20:15.670Z,39
2017-09-15T06:21:18.120Z,39
2017-09-15T06:22:20.575Z,48
2017-09-15T06:23:23.021Z,43
2017-09-15T06:24:25.462Z,38
2017-09-15T06:25:27.910Z,38
2017-09-15T06:26:30.365Z,38
2017-09-15T06:27:32.822Z,39
2017-09-15T06:28:35.268Z,39
2017-09-15T06:29:37.720Z,46
2017-09-15T06:30:40.163Z,42
2017-09-15T06:31:42.618Z,47
2017-09-15T06:32:45.065Z,51
2017-09-15T06:33:47.527Z,49
2017-09-15T06:34:49.972Z,42
2017-09-15T06:35:52.428Z,39
2017-09-15T06:36:54.870Z,46
2017-09-15T06:37:57.658Z,45
2017-09-15T06:39:00.450Z,45
2017-09-15T06:40:02.893Z,48
2017-09-15T06:41:05.341Z,47
2017-09-15T06:42:08.126Z,52
2017-09-15T06:43:10.577Z,48
2017-09-15T06:44:13.022Z,50
2017-09-15T06:45:15.467Z,50
2017-09-15T06:46:17.918Z,51
2017-09-15T06:47:20.713Z,53
2017-09-15T06:48:23.157Z,55
2017-09-15T06:49:25.603Z,57
2017-09-15T06:50:28.047Z,64
2017-09-15T06:51:30.497Z,59
2017-09-15T06:52:32.945Z,59
2017-09-15T06:53:35.387Z,61
2017-09-15T06:54:37.828Z,64
2017-09-15T06:55:40.284Z,67
2017-09-15T06:56:42.724Z,70
2017-09-15T06:57:45.172Z,72
2017-09-15T06:58:47.627Z,73
2017-09-15T06:59:50.066Z,72
2017-09-15T07:00:52.507Z,70
2017-09-15T07:01:54.962Z,73
2017-09-15T07:02:57.403Z,73
2017-09-15T07:03:59.850Z,72
2017-09-15T07:05:02.303Z,72
2017-09-15T07:06:04.749Z,71
2017-09-15T07:07:07.208Z,71
2017-09-15T07:08:09.652Z,70
2017-09-15T07:09:12.103Z,68
2017-09-15T07:10:14.565Z,66
2017-09-15T07:11:17.007Z,67
2017-09-15T07:12:19.452Z,67
2017-09-15T07:13:21.900Z,67
2017-09-15T07:14:24.342Z,66
2017-09-15T07:15:26.792Z,66
2017-09-15T07:16:29.244Z,66
2017-09-15T07:17:31.694Z,67
2017-09-15T07:18:34.145Z,70
2017-09-15T07:19:36.589Z,74
2017-09-15T07:20:39.043Z,77
2017-09-15T07:21:41.495Z,80
2017-09-15T07:22:43.938Z,83
2017-09-15T07:23:46.388Z,82
2017-09-15T07:24:48.835Z,83
2017-09-15T07:25:51.283Z,82
2017-09-15T07:26:53.744Z,81
2017-09-15T07:27:56.193Z,78
2017-09-15T07:28:58.636Z,78
2017-09-15T07:30:01.088Z,81
2017-09-15T07:31:03.903Z,85
2017-09-15T07:32:06.344Z,87
2017-09-15T07:33:08.798Z,93
2017-09-15T07:34:11.241Z,102
2017-09-15T07:35:13.695Z,101
2017-09-15T07:36:16.152Z,101
2017-09-15T07:37:18.946Z,119
2017-09-15T07:38:21.389Z,120
2017-09-15T07:39:23.841Z,93
2017-09-15T07:40:26.287Z,85
2017-09-15T07:41:28.742Z,85
2017-09-15T07:42:31.191Z,93
2017-09-15T07:43:33.636Z,88
2017-09-15T07:44:36.430Z,90
2017-09-15T07:45:38.883Z,90
2017-09-15T07:46:41.335Z,85
2017-09-15T07:47:43.785Z,92
2017-09-15T07:48:46.224Z,103
2017-09-15T07:49:48.673Z,117
2017-09-15T07:50:51.461Z,102
2017-09-15T07:51:53.905Z,106
2017-09-15T07:52:56.367Z,108
2017-09-15T07:53:58.798Z,105
2017-09-15T07:55:01.261Z,114
2017-09-15T07:56:03.703Z,111
2017-09-15T07:57:06.156Z,116
2017-09-15T07:58:08.606Z,111
2017-09-15T07:59:11.061Z,120
2017-09-15T08:00:13.498Z,123
2017-09-15T08:01:16.304Z,124
2017-09-15T08:02:18.755Z,130
2017-09-15T08:03:21.204Z,156
2017-09-15T08:04:23.657Z,215
2017-09-15T08:05:26.103Z,114
2017-09-15T08:06:28.556Z,163
2017-09-15T08:07:31.015Z,159
2017-09-15T08:08:33.456Z,114
2017-09-15T08:09:35.913Z,117
2017-09-15T08:10:38.358Z,143
2017-09-15T08:11:40.815Z,115
2017-09-15T08:12:43.262Z,105
2017-09-15T08:13:45.714Z,151
2017-09-15T08:14:48.165Z,156
2017-09-15T08:15:50.618Z,136
2017-09-15T08:16:53.071Z,125
2017-09-15T08:17:55.526Z,110
2017-09-15T08:18:57.975Z,140
2017-09-15T08:20:00.422Z,205
2017-09-15T08:21:02.873Z,304
2017-09-15T08:22:05.326Z,172
2017-09-15T08:23:07.778Z,121
2017-09-15T08:24:10.227Z,130
2017-09-15T08:25:12.672Z,176
2017-09-15T08:26:15.126Z,256
2017-09-15T08:27:17.575Z,127
2017-09-15T08:28:20.026Z,222
2017-09-15T08:29:22.475Z,100
2017-09-15T08:30:24.925Z,86
2017-09-15T08:31:27.735Z,98
2017-09-15T08:32:30.191Z,101
2017-09-15T08:33:32.974Z,113
2017-09-15T08:34:35.424Z,121
2017-09-15T08:35:37.886Z,137
2017-09-15T08:36:40.336Z,212
2017-09-15T08:37:42.785Z,333
2017-09-15T08:38:45.248Z,380
2017-09-15T08:39:47.696Z,430
2017-09-15T08:40:50.149Z,504
2017-09-15T08:41:52.603Z,133
2017-09-15T08:42:55.041Z,136
2017-09-15T08:43:57.859Z,420
2017-09-15T08:45:00.319Z,428
2017-09-15T08:46:02.770Z,467
2017-09-15T08:47:05.561Z,434
2017-09-15T08:48:08.024Z,165
2017-09-15T08:49:11.172Z,239
2017-09-15T08:50:13.612Z,147
2017-09-15T08:51:16.066Z,417
2017-09-15T08:52:18.524Z,361
2017-09-15T08:53:20.989Z,113
2017-09-15T08:54:23.447Z,392
2017-09-15T08:55:25.913Z,128
2017-09-15T08:56:28.357Z,105
2017-09-15T08:57:30.822Z,159
2017-09-15T08:58:33.273Z,228
2017-09-15T08:59:35.722Z,168
2017-09-15T09:00:38.176Z,481
2017-09-15T09:01:40.620Z,114
2017-09-15T09:02:43.081Z,414
2017-09-15T09:03:45.880Z,512
2017-09-15T09:04:48.330Z,138
2017-09-15T09:05:50.779Z,529
2017-09-15T09:06:53.235Z,537
2017-09-15T09:07:55.687Z,216
2017-09-15T09:08:58.160Z,134
2017-09-15T09:10:00.618Z,495
2017-09-15T09:11:03.087Z,432
2017-09-15T09:12:05.872Z,224
2017-09-15T09:13:08.329Z,172
2017-09-15T09:14:10.786Z,436
2017-09-15T09:15:13.239Z,305
2017-09-15T09:16:15.703Z,517
2017-09-15T09:17:18.156Z,562
2017-09-15T09:18:20.628Z,198
2017-09-15T09:19:23.081Z,548
2017-09-15T09:20:25.542Z,577
2017-09-15T09:21:27.997Z,180
2017-09-15T09:22:30.458Z,152
2017-09-15T09:23:32.908Z,550
2017-09-15T09:24:35.706Z,162
2017-09-15T09:25:38.159Z,591
2017-09-15T09:26:40.614Z,163
2017-09-15T09:27:43.070Z,216
2017-09-15T09:28:45.520Z,213
2017-09-15T09:29:47.972Z,108
2017-09-15T09:30:50.432Z,133
2017-09-15T09:31:52.884Z,629
2017-09-15T09:32:55.339Z,178
2017-09-15T09:33:57.798Z,134
2017-09-15T09:35:00.248Z,134
2017-09-15T09:36:02.706Z,479
2017-09-15T09:37:05.161Z,123
2017-09-15T09:38:07.622Z,119
2017-09-15T09:39:10.076Z,89
2017-09-15T09:40:12.538Z,124
2017-09-15T09:41:14.988Z,156
2017-09-15T09:42:17.442Z,601
2017-09-15T09:43:19.903Z,305
2017-09-15T09:44:22.355Z,138
2017-09-15T09:45:24.813Z,529
2017-09-15T09:46:27.268Z,213
2017-09-15T09:47:29.738Z,136
2017-09-15T09:48:32.192Z,572
2017-09-15T09:49:34.983Z,114
2017-09-15T09:50:37.446Z,546
2017-09-15T09:51:39.896Z,109
2017-09-15T09:52:42.354Z,505
2017-09-15T09:53:45.156Z,548
2017-09-15T09:54:47.604Z,624
2017-09-15T09:55:50.061Z,241
2017-09-15T09:56:52.528Z,111
2017-09-15T09:57:54.984Z,165
2017-09-15T09:58:57.439Z,570
2017-09-15T09:59:59.903Z,583
2017-09-15T10:01:02.352Z,591
2017-09-15T10:02:05.155Z,544
2017-09-15T10:03:07.610Z,621
2017-09-15T10:04:10.067Z,538
2017-09-15T10:05:12.523Z,144
2017-09-15T10:06:14.976Z,143
2017-09-15T10:07:17.430Z,110
2017-09-15T10:08:19.899Z,113
2017-09-15T10:09:22.350Z,107
2017-09-15T10:10:25.151Z,497
2017-09-15T10:11:27.606Z,188
2017-09-15T10:12:30.065Z,132
2017-09-15T10:13:32.871Z,162
2017-09-15T10:14:35.332Z,516
2017-09-15T10:15:37.783Z,547
2017-09-15T10:16:40.578Z,578
2017-09-15T10:17:43.032Z,528
2017-09-15T10:18:45.486Z,503
2017-09-15T10:19:47.944Z,179
2017-09-15T10:20:50.409Z,493
2017-09-15T10:21:52.858Z,285
2017-09-15T10:22:55.326Z,552
2017-09-15T10:23:57.782Z,535
2017-09-15T10:25:00.240Z,581
2017-09-15T10:26:02.692Z,525
2017-09-15T10:27:05.152Z,528
2017-09-15T10:28:07.606Z,559
2017-09-15T10:29:10.070Z,163
2017-09-15T10:30:12.523Z,594
2017-09-15T10:31:14.995Z,244
2017-09-15T10:32:17.798Z,171
2017-09-15T10:33:20.255Z,140
2017-09-15T10:34:22.715Z,289
2017-09-15T10:35:25.163Z,145
2017-09-15T10:36:27.622Z,133
2017-09-15T10:37:30.079Z,150
2017-09-15T10:38:32.879Z,146
2017-09-15T10:39:35.339Z,108
2017-09-15T10:40:37.788Z,131
2017-09-15T10:41:40.255Z,155
2017-09-15T10:42:42.711Z,167
2017-09-15T10:43:45.523Z,467
2017-09-15T10:44:48.333Z,138
2017-09-15T10:45:50.798Z,136
2017-09-15T10:46:53.242Z,602
2017-09-15T10:47:56.048Z,159
2017-09-15T10:48:58.504Z,527
2017-09-15T10:50:00.960Z,323
2017-09-15T10:51:03.422Z,563
2017-09-15T10:52:05.872Z,181
2017-09-15T10:53:08.326Z,160
2017-09-15T10:54:11.129Z,572
2017-09-15T10:55:13.578Z,526
2017-09-15T10:56:16.024Z,608
2017-09-15T10:57:18.483Z,559
2017-09-15T10:58:20.934Z,511
2017-09-15T10:59:23.395Z,113
2017-09-15T11:00:25.848Z,123
2017-09-15T11:01:28.307Z,101
2017-09-15T11:02:30.766Z,92
2017-09-15T11:03:33.569Z,98
2017-09-15T11:04:36.025Z,121
2017-09-15T11:05:38.469Z,431
2017-09-15T11:06:40.925Z,109
2017-09-15T11:07:43.379Z,101
2017-09-15T11:08:45.838Z,101
2017-09-15T11:09:48.288Z,91
2017-09-15T11:10:50.741Z,76
2017-09-15T11:11:53.193Z,79
2017-09-15T11:12:55.654Z,102
2017-09-15T11:13:58.105Z,184
2017-09-15T11:15:00.555Z,597
2017-09-15T11:16:03.013Z,137
2017-09-15T11:17:05.478Z,154
2017-09-15T11:18:07.924Z,167
2017-09-15T11:19:10.727Z,533
2017-09-15T11:20:13.175Z,531
2017-09-15T11:21:15.627Z,196
2017-09-15T11:22:18.085Z,160
2017-09-15T11:23:20.539Z,137
2017-09-15T11:24:22.999Z,513
2017-09-15T11:25:25.462Z,111
2017-09-15T11:26:27.918Z,118
2017-09-15T11:27:30.331Z,535
2017-09-15T11:28:32.733Z,526
2017-09-15T11:29:35.138Z,581
2017-09-15T11:30:37.548Z,121
2017-09-15T11:31:39.958Z,133
2017-09-15T11:32:42.366Z,616
2017-09-15T11:33:44.760Z,616
2017-09-15T11:34:47.164Z,644
2017-09-15T11:35:49.563Z,597
2017-09-15T11:36:51.984Z,254
2017-09-15T11:37:54.728Z,206
2017-09-15T11:38:57.121Z,158
2017-09-15T11:39:59.540Z,122
2017-09-15T11:41:01.942Z,97
2017-09-15T11:42:04.352Z,83
2017-09-15T11:43:06.751Z,80
2017-09-15T11:44:09.505Z,86
2017-09-15T11:45:11.903Z,100
2017-09-15T11:46:14.299Z,104
2017-09-15T11:47:16.707Z,126
2017-09-15T11:48:19.105Z,130
2017-09-15T11:49:21.512Z,593
2017-09-15T11:50:23.926Z,589
2017-09-15T11:51:26.320Z,453
2017-09-15T11:52:28.723Z,575
2017-09-15T11:53:31.135Z,598
2017-09-15T11:54:33.538Z,637
2017-09-15T11:55:35.939Z,624
2017-09-15T11:56:38.700Z,211
2017-09-15T11:57:41.085Z,565
2017-09-15T11:58:43.488Z,562
2017-09-15T11:59:45.900Z,184
2017-09-15T12:00:48.304Z,151
2017-09-15T12:01:50.713Z,132
2017-09-15T12:02:53.112Z,119
2017-09-15T12:03:55.525Z,129
2017-09-15T12:04:57.921Z,136
2017-09-15T12:06:00.324Z,354
2017-09-15T12:07:02.733Z,538
2017-09-15T12:08:05.129Z,413
2017-09-15T12:09:07.544Z,325
2017-09-15T12:10:09.942Z,475
2017-09-15T12:11:12.343Z,140
2017-09-15T12:12:14.760Z,129
2017-09-15T12:13:17.153Z,118
2017-09-15T12:14:19.568Z,111
2017-09-15T12:15:21.980Z,148
2017-09-15T12:16:24.727Z,165
2017-09-15T12:17:27.134Z,578
2017-09-15T12:18:29.547Z,266
2017-09-15T12:19:31.944Z,170
2017-09-15T12:20:34.356Z,405
2017-09-15T12:21:36.764Z,484
2017-09-15T12:22:39.171Z,451
2017-09-15T12:23:41.576Z,430
2017-09-15T12:24:43.979Z,430
2017-09-15T12:25:46.381Z,149
2017-09-15T12:26:49.126Z,126
2017-09-15T12:27:51.524Z,134
2017-09-15T12:28:53.934Z,123
2017-09-15T12:29:56.342Z,105
2017-09-15T12:30:58.741Z,93
2017-09-15T12:32:01.149Z,87
2017-09-15T12:33:03.552Z,87
2017-09-15T12:34:05.949Z,74
2017-09-15T12:35:08.353Z,72
2017-09-15T12:36:10.760Z,69
2017-09-15T12:37:13.524Z,70
2017-09-15T12:38:15.919Z,76
2017-09-15T12:39:18.326Z,83
2017-09-15T12:40:20.730Z,206
2017-09-15T12:41:23.144Z,138
2017-09-15T12:42:25.539Z,167
2017-09-15T12:43:27.935Z,177
2017-09-15T12:44:30.342Z,428
2017-09-15T12:45:32.741Z,135
2017-09-15T12:46:35.145Z,419
2017-09-15T12:47:37.550Z,463
2017-09-15T12:48:39.950Z,96
2017-09-15T12:49:42.357Z,105
2017-09-15T12:50:44.769Z,101
2017-09-15T12:51:47.168Z,107
2017-09-15T12:52:49.585Z,103
2017-09-15T12:53:52.322Z,109
2017-09-15T12:54:54.733Z,120
2017-09-15T12:55:57.137Z,163
2017-09-15T12:56:59.885Z,441
2017-09-15T12:58:02.280Z,379
2017-09-15T12:59:04.684Z,512
2017-09-15T13:00:07.083Z,427
2017-09-15T13:01:09.484Z,430
2017-09-15T13:02:11.886Z,109
2017-09-15T13:03:14.288Z,110
2017-09-15T13:04:16.706Z,284
2017-09-15T13:05:19.108Z,410
2017-09-15T13:06:21.522Z,456
2017-09-15T13:07:23.924Z,449
2017-09-15T13:08:26.329Z,188
2017-09-15T13:09:28.740Z,373
2017-09-15T13:10:31.136Z,409
2017-09-15T13:11:33.548Z,405
2017-09-15T13:12:35.949Z,307
2017-09-15T13:13:38.354Z,110
2017-09-15T13:14:40.765Z,103
2017-09-15T13:15:43.166Z,104
2017-09-15T13:16:45.590Z,114
2017-09-15T13:17:48.004Z,131
2017-09-15T13:18:50.400Z,134
2017-09-15T13:19:52.812Z,141
2017-09-15T13:20:55.555Z,146
2017-09-15T13:21:57.953Z,150
2017-09-15T13:23:00.355Z,154
2017-09-15T13:24:02.755Z,384
2017-09-15T13:25:05.160Z,337
2017-09-15T13:26:07.569Z,346
2017-09-15T13:27:09.966Z,343
2017-09-15T13:28:12.377Z,311
2017-09-15T13:29:14.785Z,307
2017-09-15T13:30:17.186Z,165
2017-09-15T13:31:19.592Z,316
2017-09-15T13:32:22.025Z,274
2017-09-15T13:33:24.406Z,297
2017-09-15T13:34:27.192Z,235
2017-09-15T13:35:29.598Z,205
2017-09-15T13:36:31.997Z,247
2017-09-15T13:37:34.408Z,237
2017-09-15T13:38:36.818Z,184
2017-09-15T13:39:39.213Z,158
2017-09-15T13:40:41.628Z,135
2017-09-15T13:41:44.031Z,209
2017-09-15T13:42:46.431Z,133
2017-09-15T13:43:48.842Z,123
2017-09-15T13:44:51.256Z,120
2017-09-15T13:45:53.863Z,126
2017-09-15T13:46:56.261Z,194
2017-09-15T13:47:58.667Z,239
2017-09-15T13:49:01.074Z,169
2017-09-15T13:50:03.494Z,131
2017-09-15T13:51:05.903Z,185
2017-09-15T13:52:08.302Z,116
2017-09-15T13:53:10.715Z,107
2017-09-15T13:54:13.138Z,91
2017-09-15T13:55:15.534Z,82
2017-09-15T13:56:17.946Z,75
2017-09-15T13:57:20.349Z,75
2017-09-15T13:58:22.757Z,79
2017-09-15T13:59:25.171Z,81
2017-09-15T14:00:27.573Z,84
2017-09-15T14:01:29.971Z,88
2017-09-15T14:02:32.381Z,90
2017-09-15T14:03:34.789Z,92
2017-09-15T14:04:37.195Z,102
2017-09-15T14:05:39.605Z,117
2017-09-15T14:06:41.998Z,127
2017-09-15T14:07:44.407Z,256
2017-09-15T14:08:46.817Z,272
2017-09-15T14:09:49.219Z,133
2017-09-15T14:10:51.624Z,110
2017-09-15T14:11:54.364Z,109
2017-09-15T14:12:56.761Z,109
2017-09-15T14:13:59.171Z,113
2017-09-15T14:15:01.627Z,113
2017-09-15T14:16:04.031Z,109
2017-09-15T14:17:06.436Z,113
2017-09-15T14:18:08.848Z,106
2017-09-15T14:19:11.255Z,102
2017-09-15T14:20:13.661Z,104
2017-09-15T14:21:16.065Z,99
2017-09-15T14:22:18.471Z,96
2017-09-15T14:23:20.876Z,94
2017-09-15T14:24:23.286Z,93
2017-09-15T14:25:25.674Z,92
2017-09-15T14:26:28.084Z,90
2017-09-15T14:27:30.484Z,86
2017-09-15T14:28:32.895Z,81
2017-09-15T14:29:35.306Z,76
2017-09-15T14:30:37.703Z,69
2017-09-15T14:31:40.109Z,66
2017-09-15T14:32:42.524Z,62
2017-09-15T14:33:44.926Z,59
2017-09-15T14:34:47.341Z,60
2017-09-15T14:35:49.741Z,60
2017-09-15T14:36:52.140Z,61
2017-09-15T14:37:54.558Z,64
2017-09-15T14:38:56.964Z,67
2017-09-15T14:39:59.364Z,68
2017-09-15T14:41:01.951Z,77
2017-09-15T14:42:04.696Z,148
2017-09-15T14:43:07.104Z,195
2017-09-15T14:44:09.509Z,233
2017-09-15T14:45:12.011Z,243
2017-09-15T14:46:14.414Z,184
2017-09-15T14:47:16.824Z,110
2017-09-15T14:48:19.235Z,82